Latest Coastal Weather Observations for Port Lincoln Airport

IDS60701

Issued at 10:25 am CST Saturday 26 July 2014 (issued every 10 minutes, with the page automatically refreshed every 10 minutes)

About coastal observations | Map of coastal stations | Coastal observations for SA | Marine services | Other Formats
Station Details ID: 018192 Name: PORT LINCOLN AWS Lat: -34.60 Lon: 135.88 Height: 8.5 m
Data from the previous 72 hours. | See also: Recent months at Port Lincoln Airport
Date/Time
CST
Temp

°C
Wind Pressure Rain
since 9am
mm
Weather Cloud Vis
km
Sea
Height
m
Swell
Dir
 
Speed
knots
Gust
knots
hPa Trend Height
m
Period
s
Dir
26/10:00am 13.1 N 12 15 1027.5 - 0.0 - - 10 - - - -
26/09:30am 12.4 N 10 14 1027.7 - 0.0 - - 10 - - - -
26/09:00am 11.1 NNW 11 15 1027.4 - 0.6 - - 10 - - - -
26/08:30am 10.0 NW 10 12 1027.1 - 0.6 - - 10 - - - -
26/08:00am 8.7 WNW 6 8 1026.9 - 0.6 - - 10 - - - -
26/07:30am 7.8 NW 7 8 1026.6 - 0.6 - - 10 - - - -
26/07:00am 8.3 WNW 8 10 1026.3 - 0.6 - - 10 - - - -
26/06:30am 8.1 NW 8 10 1026.0 - 0.6 - - 10 - - - -
26/06:00am 8.5 WNW 10 12 1025.6 - 0.6 - - 10 - - - -
26/05:30am 8.5 NW 8 9 1025.2 - 0.6 - - 10 - - - -
26/05:00am 8.6 NW 9 10 1025.1 - 0.6 - - 10 - - - -
26/04:30am 8.2 NW 9 11 1025.1 - 0.6 - - 10 - - - -
26/04:00am 8.2 NW 8 10 1025.1 - 0.6 - - 10 - - - -
26/03:30am 8.8 NW 8 10 1025.0 - 0.6 - - 10 - - - -
26/03:00am 8.0 NNW 6 7 1025.0 - 0.6 - - 10 - - - -
26/02:30am 8.6 NW 6 8 1024.9 - 0.6 - - 10 - - - -
26/02:00am 9.1 NW 7 9 1024.8 - 0.6 - - 10 - - - -
26/01:30am 7.9 NW 6 8 1024.6 - 0.6 - - 10 - - - -
26/01:00am 9.0 NW 7 8 1024.8 - 0.6 - - 10 - - - -
26/12:30am 8.5 NNW 7 8 1025.0 - 0.6 - - 10 - - - -
26/12:00am 8.5 NNW 7 8 1025.0 - 0.6 - Mostly clear 10 - - - -
 
Date/Time
CST
Temp

°C
Wind Pressure Rain
since 9am
mm
Weather Cloud Vis
km
Sea
Height
m
Swell
Dir
 
Speed
knots
Gust
knots
hPa Trend Height
m
Period
s
Dir
25/11:30pm 8.9 NNW 7 8 1024.9 - 0.6 - - 10 - - - -
25/11:00pm 8.6 WNW 8 9 1024.7 - 0.6 - - 10 - - - -
25/10:30pm 8.5 WNW 7 8 1024.5 - 0.6 - - 10 - - - -
25/10:00pm 8.9 WNW 6 8 1024.4 - 0.6 - - 10 - - - -
25/09:30pm 8.8 WNW 6 8 1024.1 - 0.6 - - 10 - - - -
25/09:00pm 8.9 WNW 8 9 1023.8 - 0.6 - - 10 - - - -
25/08:30pm 8.7 WNW 6 7 1023.6 - 0.6 - - 10 - - - -
25/08:00pm 9.0 WNW 6 8 1023.4 - 0.6 - - 10 - - - -
25/07:30pm 10.3 WNW 5 6 1023.1 - 0.6 - - 10 - - - -
25/07:00pm 10.5 NNW 3 4 1022.8 - 0.6 - - 10 - - - -
25/06:30pm 10.7 CALM 0 0 1022.4 - 0.6 - - 10 - - - -
25/06:00pm 11.9 CALM 0 3 1022.0 - 0.6 - - 10 - - - -
25/05:30pm 13.0 WSW 7 10 1021.6 - 0.6 - - 10 - - - -
25/05:00pm 14.5 WSW 9 12 1021.2 - 0.6 - - 10 - - - -
25/04:30pm 15.2 SW 9 13 1020.7 - 0.6 - - 10 - - - -
25/04:00pm 14.9 W 10 14 1020.3 - 0.6 - Partly cloudy 10 - - - -
25/03:30pm 15.1 W 9 13 1020.0 - 0.6 - - 10 - - - -
25/03:00pm 16.0 W 8 12 1019.7 - 0.6 - Cloudy 10 - - - -
25/02:30pm 15.7 W 8 15 1019.5 - 0.6 - Partly cloudy 10 - - - -
25/02:00pm 14.2 WNW 9 12 1019.5 - 0.6 - Partly cloudy 10 - - - -
25/01:30pm 15.5 WSW 7 11 1019.3 - 0.4 - Partly cloudy 10 - - - -
25/01:00pm 13.7 W 9 12 1019.4 - 0.4 - Partly cloudy 10 - - - -
25/12:30pm 16.1 W 7 9 1019.4 - 0.2 - Partly cloudy 10 - - - -
25/12:00pm 15.3 W 7 10 1019.6 - 0.2 - Cloudy 10 - - - -
25/11:30am 15.3 W 7 11 1019.8 - 0.2 - Partly cloudy 10 - - - -
25/11:00am 14.8 NW 4 7 1019.7 - 0.2 - Partly cloudy 10 - - - -
25/10:30am 13.3 W 4 8 1019.9 - 0.2 - Partly cloudy 9 - - - -
25/10:00am 14.0 WNW 9 11 1019.7 - 0.0 - Partly cloudy 10 - - - -
25/09:30am 13.1 WNW 8 11 1019.2 - 0.0 - Cloudy 10 - - - -
25/09:00am 12.3 NW 6 8 1018.8 - 4.8 - Mostly cloudy 10 - - - -
25/08:30am 11.7 NW 6 8 1018.5 - 4.8 - Cloudy 10 - - - -
25/08:10am 11.6 NW 8 10 1018.4 - 4.2 - Cloudy 6 - - - -
25/08:00am 11.7 WNW 9 11 1018.3 - 4.0 - Partly cloudy 5 - - - -
25/07:52am 11.6 W 9 11 1018.1 - 3.6 - Partly cloudy 5 - - - -
25/07:30am 11.2 WNW 7 9 1017.6 - 3.0 - Partly cloudy 10 - - - -
25/07:00am 11.3 WNW 9 11 1017.0 - 3.0 - Partly cloudy 10 - - - -
25/06:30am 11.3 WNW 8 9 1016.6 - 3.0 - Partly cloudy 10 - - - -
25/06:00am 11.1 WNW 7 9 1016.3 - 3.0 - Cloudy 10 - - - -
25/05:30am 11.0 WNW 9 11 1015.9 - 2.8 - Partly cloudy 10 - - - -
25/05:00am 10.8 WNW 9 11 1015.6 - 2.8 - Cloudy 10 - - - -
25/04:30am 10.3 WNW 8 10 1015.3 - 2.8 - Partly cloudy 10 - - - -
25/04:00am 11.0 WNW 9 11 1015.0 - 2.8 - Partly cloudy 10 - - - -
25/03:30am 11.3 WNW 9 12 1014.8 - 2.8 - Partly cloudy 10 - - - -
25/03:00am 11.9 W 12 16 1014.7 - 2.4 - Cloudy 10 - - - -
25/02:30am 11.2 WNW 8 10 1014.4 - 2.4 - Cloudy 10 - - - -
25/02:00am 10.7 WNW 7 9 1014.2 - 2.4 - Cloudy 10 - - - -
25/01:30am 9.9 NW 9 10 1014.1 - 2.4 - - 10 - - - -
25/01:00am 10.6 WNW 8 11 1013.9 - 2.4 - Partly cloudy 10 - - - -
25/12:30am 10.7 WNW 8 10 1013.9 - 2.4 - - 10 - - - -
25/12:00am 10.8 W 10 11 1013.8 - 2.4 - - 10 - - - -
 
Date/Time
CST
Temp

°C
Wind Pressure Rain
since 9am
mm
Weather Cloud Vis
km
Sea
Height
m
Swell
Dir
 
Speed
knots
Gust
knots
hPa Trend Height
m
Period
s
Dir
24/11:30pm 11.1 W 9 11 1013.8 - 2.4 - Partly cloudy 10 - - - -
24/11:00pm 11.4 WNW 9 11 1013.8 - 2.4 - Partly cloudy 10 - - - -
24/10:30pm 11.9 WNW 9 12 1013.6 - 2.4 - Partly cloudy 10 - - - -
24/10:00pm 11.0 WNW 9 12 1013.5 - 2.2 - Partly cloudy 10 - - - -
24/09:30pm 11.6 WNW 8 10 1013.2 - 2.2 - Partly cloudy 10 - - - -
24/09:00pm 11.7 WNW 9 12 1013.0 - 2.2 - - 10 - - - -
24/08:30pm 11.5 W 10 13 1012.5 - 2.2 - - 10 - - - -
24/08:00pm 11.7 W 10 13 1012.3 - 2.2 - - 10 - - - -
24/07:30pm 11.9 WNW 11 15 1012.0 - 2.2 - - 10 - - - -
24/07:00pm 11.9 W 11 13 1011.6 - 2.2 - - 10 - - - -
24/06:30pm 12.2 W 12 15 1011.2 - 2.2 - - 10 - - - -
24/06:00pm 12.6 W 12 17 1010.8 - 2.2 - - 10 - - - -
24/05:30pm 13.1 W 13 18 1010.3 - 2.2 - - 10 - - - -
24/05:00pm 13.8 W 17 23 1010.0 - 2.2 - - 10 - - - -
24/04:30pm 14.9 W 14 23 1009.6 - 2.2 - Partly cloudy 10 - - - -
24/04:00pm 14.6 W 19 27 1009.3 - 2.2 - Partly cloudy 10 - - - -
24/03:30pm 15.5 W 18 28 1008.8 - 2.2 - Partly cloudy 10 - - - -
24/03:27pm 15.7 W 17 27 1008.7 - 2.2 - Partly cloudy 10 - - - -
24/03:00pm 14.6 W 20 27 1008.5 - 2.2 - Cloudy 10 - - - -
24/02:30pm 14.1 W 17 26 1008.2 - 2.2 - Partly cloudy 10 - - - -
24/02:12pm 14.3 W 19 26 1008.0 - 2.2 - Partly cloudy 10 - - - -
24/02:02pm 14.0 W 19 28 1007.9 - 2.2 - Partly cloudy 5 - - - -
24/02:00pm 14.4 W 18 28 1007.9 - 2.2 - Partly cloudy 6 - - - -
24/01:59pm 14.5 W 17 28 1007.9 - 2.2 - Partly cloudy 6 - - - -
24/01:30pm 15.2 W 21 25 1007.9 - 2.0 - Partly cloudy 10 - - - -
24/01:00pm 15.1 W 19 25 1008.1 - 2.0 - Cloudy 10 - - - -
24/12:30pm 14.4 W 17 24 1008.3 - 2.0 - Partly cloudy 10 - - - -
24/12:14pm 14.6 W 16 26 1008.5 - 2.0 - Partly cloudy 10 - - - -
24/12:00pm 14.4 W 14 19 1008.7 - 1.8 - Mostly cloudy 10 - - - -
24/11:56am 14.0 W 14 18 1008.8 - 1.8 - Partly cloudy 10 - - - -
24/11:42am 13.1 W 18 23 1008.9 - 1.8 - Partly cloudy 5 - - - -
24/11:30am 14.0 W 18 25 1008.8 - 1.8 - Partly cloudy 10 - - - -
24/11:06am 14.1 W 20 28 1008.5 - 1.8 - Partly cloudy 10 - - - -
24/11:03am 13.7 W 20 27 1008.5 - 1.8 - Partly cloudy 10 - - - -
24/11:00am 13.8 W 20 29 1008.5 - 1.8 - Partly cloudy 10 - - - -
24/10:49am 13.2 WSW 19 26 1008.6 - 1.8 - Partly cloudy 2 - - - -
24/10:40am 14.0 W 19 24 1008.4 - 0.4 - Partly cloudy 5 - - - -
24/10:30am 14.4 W 18 22 1008.3 - 0.4 - Partly cloudy 10 - - - -
24/10:13am 13.9 W 18 24 1008.2 - 0.4 - Partly cloudy 7 - - - -
24/10:00am 13.5 W 19 25 1008.1 - 0.2 - Partly cloudy 4 - - - -
24/09:56am 13.7 W 19 25 1008.1 - 0.2 - Partly cloudy 5 - - - -
24/09:30am 13.5 WNW 14 21 1007.8 - 0.0 - Partly cloudy 10 - - - -
24/09:00am 13.0 WNW 11 14 1007.3 - 12.6 - - 10 - - - -
24/08:30am 11.7 WNW 9 10 1007.1 - 12.6 - - 10 - - - -
24/08:00am 11.1 NW 8 12 1006.9 - 12.6 - Partly cloudy 10 - - - -
24/07:30am 9.1 WNW 7 8 1006.4 - 12.6 - - 10 - - - -
24/07:00am 9.4 NW 9 11 1006.3 - 12.6 - - 10 - - - -
24/06:30am 10.2 W 9 11 1005.7 - 12.6 - - 10 - - - -
24/06:00am 10.5 WNW 9 11 1005.6 - 12.6 - - 10 - - - -
24/05:30am 10.5 WNW 7 9 1005.2 - 12.6 - Partly cloudy 10 - - - -
24/05:01am 10.6 W 10 13 1005.0 - 12.6 - Partly cloudy 10 - - - -
24/05:00am 10.6 W 10 13 1004.9 - 12.6 - Partly cloudy 10 - - - -
24/04:51am 10.7 W 10 14 1004.9 - 12.6 - Partly cloudy 5 - - - -
24/04:30am 10.2 WNW 10 13 1004.6 - 12.6 - Partly cloudy 10 - - - -
24/04:00am 10.2 W 13 16 1004.2 - 12.6 - Partly cloudy 10 - - - -
24/03:30am 10.3 W 11 14 1004.3 - 12.6 - Partly cloudy 10 - - - -
24/03:00am 9.8 W 13 16 1004.1 - 12.6 - - 10 - - - -
24/02:30am 9.6 W 10 13 1003.7 - 12.6 - - 10 - - - -
24/02:00am 10.1 W 8 11 1003.6 - 12.4 - Partly cloudy 10 - - - -
24/01:30am 10.3 SW 8 10 1003.2 - 12.4 - Partly cloudy 10 - - - -
24/01:00am 10.5 WSW 6 7 1003.2 - 12.4 - Cloudy 10 - - - -
24/12:46am 10.4 WSW 6 7 1003.1 - 12.4 - Partly cloudy 10 - - - -
24/12:30am 10.4 WSW 5 6 1003.1 - 12.4 - Partly cloudy 6 - - - -
24/12:12am 10.7 CALM 0 0 1003.3 - 12.4 - Cloudy 9 - - - -
24/12:00am 10.7 ENE 1 4 1003.3 - 12.4 - Cloudy 5 - - - -
 
Date/Time
CST
Temp

°C
Wind Pressure Rain
since 9am
mm
Weather Cloud Vis
km
Sea
Height
m
Swell
Dir
 
Speed
knots
Gust
knots
hPa Trend Height
m
Period
s
Dir
23/11:30pm 10.9 ESE 6 10 1003.4 - 12.2 - Cloudy 2 - - - -
23/11:00pm 11.0 ENE 5 7 1003.9 - 11.4 - Cloudy 2 - - - -
23/10:36pm 10.9 ENE 10 13 1004.1 - 11.2 - Partly cloudy 5 - - - -
23/10:30pm 11.0 ENE 10 13 1004.0 - 11.2 - Partly cloudy 10 - - - -
23/10:22pm 10.9 NE 8 13 1004.1 - 11.2 - Partly cloudy 7 - - - -
23/10:00pm 10.7 NNE 6 8 1004.4 - 11.2 - Cloudy 10 - - - -
23/09:30pm 10.3 NNE 5 7 1004.6 - 11.0 - Partly cloudy 10 - - - -
23/09:00pm 10.4 NE 7 9 1005.0 - 11.0 - Cloudy 10 - - - -
23/08:30pm 10.3 NE 6 7 1005.4 - 10.8 - Partly cloudy 10 - - - -
23/08:00pm 10.3 NE 7 10 1005.9 - 10.8 - Partly cloudy 10 - - - -
23/07:30pm 10.4 ENE 6 8 1006.1 - 10.2 - Cloudy 7 - - - -
23/07:00pm 10.9 NNE 6 9 1006.5 - 8.6 - Partly cloudy 10 - - - -
23/06:30pm 11.1 N 10 14 1006.4 - 8.6 - Partly cloudy 10 - - - -
23/06:00pm 10.3 NE 6 8 1005.9 - 8.0 - Cloudy 10 - - - -
23/05:30pm 10.1 NNE 9 11 1005.9 - 8.0 - Partly cloudy 10 - - - -
23/05:00pm 11.0 NNE 10 14 1005.9 - 8.0 - Partly cloudy 10 - - - -
23/04:30pm 11.8 NNE 16 25 1006.2 - 8.0 - Partly cloudy 10 - - - -
23/04:28pm 12.0 NNE 15 25 1006.3 - 8.0 - Partly cloudy 10 - - - -
23/04:00pm 11.8 NNE 9 13 1006.6 - 8.0 - Partly cloudy 10 - - - -
23/03:30pm 11.6 NNE 7 10 1007.2 - 7.8 - Cloudy 6 - - - -
23/03:00pm 11.7 NNE 11 15 1007.5 - 6.2 - Cloudy 6 - - - -
23/02:49pm 11.8 NNE 12 17 1007.5 - 5.8 - Partly cloudy 7 - - - -
23/02:36pm 11.8 NE 12 17 1007.5 - 5.6 - Cloudy 5 - - - -
23/02:30pm 11.8 NNE 12 16 1007.5 - 5.4 - Partly cloudy 7 - - - -
23/02:00pm 11.9 NNE 14 20 1007.9 - 5.2 - Partly cloudy 8 - - - -
23/01:58pm 11.8 NNE 15 20 1007.9 - 5.2 - Partly cloudy 7 - - - -
23/01:39pm 11.7 NNE 15 20 1008.4 - 4.6 - Partly cloudy 5 - - - -
23/01:30pm 12.0 NNE 18 23 1008.5 - 4.0 - Partly cloudy 10 - - - -
23/01:00pm 11.9 NNE 14 19 1008.8 - 3.8 - Cloudy 6 - - - -
23/12:30pm 12.0 NE 16 23 1009.8 - 3.4 - Partly cloudy 9 - - - -
23/12:00pm 11.9 NE 15 20 1010.7 - 3.2 - Cloudy 10 - - - -
23/11:30am 11.4 NE 15 20 1011.7 - 3.2 - Cloudy 8 - - - -
23/11:00am 11.7 NE 15 20 1012.7 - 2.6 - Cloudy 8 - - - -
23/10:30am 11.6 NE 15 22 1013.0 - 2.4 - Partly cloudy 7 - - - -

Other Formats:

Comma delimited format used in spreadsheet applications
http://www.bom.gov.au/fwo/IDS60701/IDS60701.95661.axf

JavaScript Object Notation format (JSON) in row-major order
http://www.bom.gov.au/fwo/IDS60701/IDS60701.95661.json